Time;durP1;ratioP1;P1;durP2;ratioP2;P2;SDS_P1;SDS_P2;PMS_P1;PMS_P2;Temp;Humidity;BMP_temperature;BMP_pressure;BME280_temperature;BME280_humidity;BME280_pressure;Samples;Min_cycle;Max_cycle;Signal;HPM_P1;HPM_P2
2023/03/21 00:02:04;;;;;;;27.10;21.00;;;;;;;8.81;83.68;98770.67;222238;1280;22557;-73
2023/03/21 00:07:07;;;;;;;27.50;22.10;;;;;;;8.82;83.64;98768.30;222268;1280;23707;-75
2023/03/21 00:12:13;;;;;;;29.00;21.30;;;;;;;8.80;84.21;98773.17;222301;1280;24347;-76
2023/03/21 00:17:31;;;;;;;24.40;18.00;;;;;;;8.75;84.68;98772.60;222390;1280;22605;-75
2023/03/21 00:22:34;;;;;;;27.30;20.60;;;;;;;8.69;85.03;98769.77;222328;1278;24469;-77
2023/03/21 00:27:39;;;;;;;23.40;19.50;;;;;;;8.64;85.02;98772.80;222460;1280;22528;-78
2023/03/21 00:33:04;;;;;;;26.20;20.40;;;;;;;8.60;85.09;98770.18;222255;1278;22569;-78
2023/03/21 00:38:25;;;;;;;28.20;20.50;;;;;;;8.54;85.19;98767.13;222322;1280;22581;-77
2023/03/21 00:43:31;;;;;;;27.40;20.20;;;;;;;8.49;85.27;98766.45;222188;1262;22573;-78
2023/03/21 00:48:44;;;;;;;29.80;21.10;;;;;;;8.45;85.65;98763.56;222322;1280;22534;-78
2023/03/21 00:53:48;;;;;;;36.30;23.40;;;;;;;8.43;85.59;98758.62;222569;1276;22569;-77
2023/03/21 00:58:51;;;;;;;33.70;22.70;;;;;;;8.43;85.44;98753.65;222304;1280;22564;-78
2023/03/21 01:04:04;;;;;;;35.00;23.50;;;;;;;8.41;85.72;98755.60;222259;1280;22546;-77
2023/03/21 01:09:26;;;;;;;33.80;23.10;;;;;;;8.41;85.46;98754.77;222368;1280;23138;-77
2023/03/21 01:14:43;;;;;;;31.40;21.70;;;;;;;8.40;85.44;98746.79;222256;1280;22655;-78
2023/03/21 01:19:50;;;;;;;34.00;23.00;;;;;;;8.38;85.67;98744.71;222321;1280;25479;-77
2023/03/21 01:25:00;;;;;;;31.40;21.50;;;;;;;8.38;85.79;98739.29;222339;1280;24287;-77
2023/03/21 01:30:28;;;;;;;31.00;20.40;;;;;;;8.36;85.59;98736.77;222320;1280;22572;-78
2023/03/21 01:35:54;;;;;;;29.60;20.80;;;;;;;8.30;85.62;98733.21;222804;1280;25021;-78
2023/03/21 01:41:44;;;;;;;30.00;20.30;;;;;;;8.24;85.45;98734.02;222645;1280;22527;-78
2023/03/21 01:47:17;;;;;;;31.30;21.90;;;;;;;8.21;85.50;98728.41;222221;1279;22592;-78
2023/03/21 01:52:40;;;;;;;30.20;20.50;;;;;;;8.23;85.85;98725.21;222288;1280;22568;-79
2023/03/21 01:58:05;;;;;;;31.10;21.50;;;;;;;8.19;85.95;98716.73;222298;1280;25416;-78
2023/03/21 02:03:48;;;;;;;30.90;20.70;;;;;;;8.12;85.82;98717.13;222025;1274;22553;-78
2023/03/21 02:09:27;;;;;;;29.20;21.00;;;;;;;8.06;86.12;98713.66;221722;1283;25309;-78
2023/03/21 02:14:35;;;;;;;31.60;22.70;;;;;;;8.01;85.93;98712.61;221849;1280;22621;-79
2023/03/21 02:19:54;;;;;;;30.20;21.50;;;;;;;7.96;86.44;98711.95;221956;1283;23730;-77
2023/03/21 02:25:38;;;;;;;27.90;21.20;;;;;;;7.92;86.51;98715.91;222054;1283;24472;-78
2023/03/21 02:31:45;;;;;;;31.90;22.30;;;;;;;7.88;86.23;98714.31;221829;1283;23036;-78
2023/03/21 02:37:10;;;;;;;36.40;22.90;;;;;;;7.86;86.78;98722.40;222373;1273;22524;-78
2023/03/21 02:42:21;;;;;;;33.00;22.90;;;;;;;7.86;86.84;98719.85;222290;1280;22690;-78
2023/03/21 02:47:51;;;;;;;34.00;25.20;;;;;;;7.85;86.79;98727.48;222253;1279;25367;-79
2023/03/21 02:53:18;;;;;;;37.30;24.90;;;;;;;7.83;87.00;98720.71;222276;1278;22557;-78
2023/03/21 02:58:31;;;;;;;36.30;26.50;;;;;;;7.80;86.98;98728.87;222396;1280;22554;-79
2023/03/21 03:04:03;;;;;;;36.60;24.40;;;;;;;7.77;87.24;98726.77;222026;1274;22580;-79
2023/03/21 03:09:57;;;;;;;40.00;27.20;;;;;;;7.74;87.07;98726.38;221997;1283;22867;-78
2023/03/21 03:15:24;;;;;;;37.70;26.30;;;;;;;7.73;87.64;98725.60;221660;1283;23754;-78
2023/03/21 03:21:37;;;;;;;38.10;26.00;;;;;;;7.71;87.84;98725.00;222248;1280;22547;-78
2023/03/21 03:27:22;;;;;;;41.50;27.10;;;;;;;7.69;87.50;98725.02;222090;1280;25207;-78
2023/03/21 03:33:08;;;;;;;38.30;24.80;;;;;;;7.68;87.34;98724.92;222388;1280;22536;-78
2023/03/21 03:38:43;;;;;;;37.60;24.70;;;;;;;7.68;87.28;98718.96;222593;1280;25265;-79
2023/03/21 03:44:24;;;;;;;39.00;26.00;;;;;;;7.65;87.53;98718.32;222406;1280;22564;-79
2023/03/21 03:50:25;;;;;;;38.40;25.80;;;;;;;7.63;87.71;98714.83;222294;1280;24250;-78
2023/03/21 03:55:48;;;;;;;38.60;25.90;;;;;;;7.62;87.86;98714.77;222465;1280;22562;-79
2023/03/21 04:00:59;;;;;;;50.30;30.30;;;;;;;7.60;87.61;98705.17;222332;1279;22523;-80
2023/03/21 04:06:27;;;;;;;54.40;32.10;;;;;;;7.59;87.98;98706.86;222041;1282;25451;-80
2023/03/21 04:12:12;;;;;;;52.30;29.80;;;;;;;7.63;88.37;98713.23;221874;1282;24316;-81
2023/03/21 04:17:29;;;;;;;46.30;27.70;;;;;;;7.68;88.17;98707.46;221765;1283;22575;-80
2023/03/21 04:22:45;;;;;;;41.30;27.10;;;;;;;7.67;87.75;98716.51;222000;1283;22638;-80
2023/03/21 04:28:05;;;;;;;34.70;22.20;;;;;;;7.63;88.00;98722.92;222093;1264;24401;-80
2023/03/21 04:33:37;;;;;;;33.60;22.60;;;;;;;7.57;87.81;98718.71;222012;1278;23021;-80
2023/03/21 04:39:11;;;;;;;31.90;20.50;;;;;;;7.54;88.08;98719.22;222346;1280;22565;-79
2023/03/21 04:44:39;;;;;;;29.60;20.60;;;;;;;7.51;87.96;98719.39;222561;1280;22587;-81
2023/03/21 04:49:55;;;;;;;28.40;19.80;;;;;;;7.47;88.25;98710.33;222558;1270;26290;-80
2023/03/21 04:55:09;;;;;;;25.40;17.00;;;;;;;7.42;88.09;98711.03;222333;1264;25277;-79
2023/03/21 05:00:29;;;;;;;22.60;16.30;;;;;;;7.40;88.07;98712.17;222405;1280;25249;-80
2023/03/21 05:05:53;;;;;;;25.00;16.20;;;;;;;7.38;87.84;98712.73;222300;1266;25390;-80
2023/03/21 05:10:56;;;;;;;27.70;17.40;;;;;;;7.35;88.14;98714.02;222333;1280;22556;-78
2023/03/21 05:16:02;;;;;;;28.40;18.10;;;;;;;7.36;88.16;98713.09;222426;1280;24242;-79
2023/03/21 05:21:22;;;;;;;;;;;;;;;;;;;;;
2023/03/21 05:26:31;;;;;;;25.40;18.90;;;;;;;7.37;88.07;98717.92;222475;1280;22549;-78
2023/03/21 05:31:49;;;;;;;29.10;20.20;;;;;;;7.37;88.51;98723.48;222293;1273;22571;-80
2023/03/21 05:37:06;;;;;;;30.10;21.60;;;;;;;7.39;88.36;98724.16;222317;1280;22660;-79
2023/03/21 05:42:20;;;;;;;30.60;21.80;;;;;;;7.39;88.20;98723.27;222432;1280;23792;-78
2023/03/21 05:47:25;;;;;;;32.00;22.80;;;;;;;7.38;88.27;98720.75;222449;1279;22559;-78
2023/03/21 05:52:34;;;;;;;32.60;22.90;;;;;;;7.40;88.44;98725.06;222633;1280;22712;-79
2023/03/21 05:57:43;;;;;;;31.40;23.30;;;;;;;7.46;88.27;98723.24;222341;1280;22576;-79
2023/03/21 06:03:13;;;;;;;33.70;23.60;;;;;;;7.51;88.67;98724.98;222416;1280;22527;-78
2023/03/21 06:09:27;;;;;;;;;;;;;;;;;;;;;
2023/03/21 06:14:32;;;;;;;38.10;26.90;;;;;;;7.63;88.42;98736.89;221994;1280;23190;-79
2023/03/21 06:20:09;;;;;;;39.60;29.10;;;;;;;7.77;88.63;98740.70;221966;1282;22555;-79
2023/03/21 06:25:25;;;;;;;50.00;34.40;;;;;;;7.90;88.45;98746.70;222804;1278;22705;-79
2023/03/21 06:30:33;;;;;;;54.40;38.00;;;;;;;7.97;88.31;98749.04;221895;1283;22696;-80
2023/03/21 06:36:09;;;;;;;53.00;34.70;;;;;;;8.07;88.75;98753.00;222039;1280;22533;-79
2023/03/21 06:41:54;;;;;;;;;;;;;;;;;;;;;
2023/03/21 06:47:07;;;;;;;43.70;30.20;;;;;;;8.11;88.34;98756.73;222613;1272;26161;-78
2023/03/21 06:52:14;;;;;;;39.40;26.50;;;;;;;8.17;88.05;98759.09;222671;1267;24210;-80
2023/03/21 06:57:45;;;;;;;35.20;25.40;;;;;;;8.23;87.86;98770.17;222794;1273;24251;-80
2023/03/21 07:02:52;;;;;;;42.90;26.70;;;;;;;8.26;88.19;98772.14;223125;1265;25023;-77
2023/03/21 07:08:02;;;;;;;42.10;27.20;;;;;;;8.32;88.35;98780.58;223975;1258;22536;-78
2023/03/21 07:13:10;;;;;;;40.40;26.00;;;;;;;8.40;88.20;98782.55;223094;1267;22552;-77
2023/03/21 07:18:41;;;;;;;;;;;;;;;;;;;;;
2023/03/21 07:23:51;;;;;;;37.60;25.10;;;;;;;8.59;87.67;98786.98;222328;1256;138470;-79
2023/03/21 07:28:59;;;;;;;34.80;24.00;;;;;;;8.68;87.84;98788.73;222555;1257;139303;-80
2023/03/21 07:34:02;;;;;;;40.40;27.40;;;;;;;8.76;87.70;98784.64;222400;1271;138793;-80
2023/03/21 07:39:33;;;;;;;36.50;24.30;;;;;;;8.93;88.33;98784.09;221852;1276;139216;-79
2023/03/21 07:45:09;;;;;;;37.70;24.80;;;;;;;9.08;87.71;98787.34;221848;1277;138795;-80
2023/03/21 07:50:47;;;;;;;37.60;26.30;;;;;;;9.18;87.23;98792.41;221760;1281;138804;-81
2023/03/21 07:55:55;;;;;;;34.80;24.40;;;;;;;9.23;87.32;98797.74;221998;1279;22563;-80
2023/03/21 08:01:07;;;;;;;35.50;25.50;;;;;;;9.23;86.91;98796.52;221974;1276;22534;-80
2023/03/21 08:06:23;;;;;;;;;;;;;;;;;;;;;
2023/03/21 08:11:32;;;;;;;43.90;28.20;;;;;;;9.36;87.22;98800.95;222175;1273;138652;-83
2023/03/21 08:16:35;;;;;;;44.20;28.40;;;;;;;9.50;86.92;98799.30;222309;1273;139331;-83
2023/03/21 08:21:38;;;;;;;33.70;25.00;;;;;;;9.56;86.68;98805.80;222429;1276;139257;-82
2023/03/21 08:26:44;;;;;;;36.70;26.20;;;;;;;9.59;86.30;98808.77;222372;1259;139328;-82
2023/03/21 08:31:55;;;;;;;42.20;27.80;;;;;;;9.72;86.73;98810.25;222685;1267;22656;-82
2023/03/21 08:37:01;;;;;;;;;;;;;;;9.88;86.45;98807.56;222385;1280;139408;-78
2023/03/21 08:42:04;;;;;;;51.30;32.90;;;;;;;9.96;86.13;98813.85;222430;1273;124700;-80
2023/03/21 08:47:19;;;;;;;50.90;33.40;;;;;;;9.97;85.79;98816.62;222378;1273;138878;-79
2023/03/21 08:52:21;;;;;;;48.60;32.40;;;;;;;9.94;85.76;98821.92;222346;1272;139328;-79
2023/03/21 08:57:27;;;;;;;47.70;32.80;;;;;;;9.93;85.46;98819.23;222269;1273;138871;-79
2023/03/21 09:02:30;;;;;;;50.90;33.80;;;;;;;9.97;85.72;98819.69;222325;1273;139237;-78
2023/03/21 09:07:48;;;;;;;45.80;30.20;;;;;;;10.06;85.64;98823.02;222542;1273;22564;-78
2023/03/21 09:12:54;;;;;;;42.40;29.50;;;;;;;10.20;85.20;98827.36;222430;1267;138497;-78
2023/03/21 09:18:11;;;;;;;42.60;29.90;;;;;;;10.32;84.60;98827.10;222245;1273;139317;-79
2023/03/21 09:23:30;;;;;;;43.30;31.10;;;;;;;10.40;84.62;98835.85;222314;1272;139515;-78
2023/03/21 09:28:42;;;;;;;37.70;28.70;;;;;;;10.37;84.21;98839.40;222397;1268;139111;-78
2023/03/21 09:33:45;;;;;;;41.80;29.40;;;;;;;10.27;83.91;98841.87;222203;1272;139107;-78
2023/03/21 09:38:49;;;;;;;39.20;28.40;;;;;;;10.19;83.64;98847.32;222947;1273;138934;-77
2023/03/21 09:44:12;;;;;;;43.50;30.60;;;;;;;10.19;83.83;98847.71;222369;1275;24222;-79
2023/03/21 09:50:16;;;;;;;46.60;31.10;;;;;;;10.21;83.53;98853.83;222504;1264;23707;-78
2023/03/21 09:55:35;;;;;;;41.30;29.80;;;;;;;10.24;83.50;98854.52;222302;1273;22563;-79
2023/03/21 10:00:47;;;;;;;42.40;29.10;;;;;;;10.31;83.54;98849.15;222233;1271;139066;-80
2023/03/21 10:05:59;;;;;;;41.30;30.00;;;;;;;10.36;83.27;98841.63;222431;1266;139628;-79
2023/03/21 10:11:33;;;;;;;39.10;28.50;;;;;;;10.39;82.72;98845.22;222378;1272;138944;-78
2023/03/21 10:16:58;;;;;;;46.70;31.80;;;;;;;10.33;82.55;98842.68;222109;1275;138989;-80
2023/03/21 10:22:03;;;;;;;44.60;32.30;;;;;;;10.27;82.52;98843.58;221990;1260;359421;-83
2023/03/21 10:27:08;;;;;;;45.30;33.50;;;;;;;10.20;82.41;98847.08;222230;1276;139052;-82
2023/03/21 10:32:24;;;;;;;49.40;33.30;;;;;;;10.22;82.26;98847.14;222818;1272;139027;-80
2023/03/21 10:37:29;;;;;;;41.90;30.30;;;;;;;10.27;82.01;98847.54;222345;1272;22462;-81
2023/03/21 10:42:49;;;;;;;43.60;32.10;;;;;;;10.32;82.16;98847.38;222530;1274;138812;-82
2023/03/21 10:47:54;;;;;;;39.60;28.80;;;;;;;10.53;81.79;98848.69;222543;1272;139066;-76
2023/03/21 10:53:00;;;;;;;38.70;29.40;;;;;;;10.75;81.56;98844.38;222681;1272;139461;-82
2023/03/21 10:58:09;;;;;;;36.60;28.60;;;;;;;11.02;81.15;98848.02;222349;1271;139454;-76
2023/03/21 11:03:33;;;;;;;38.00;28.20;;;;;;;11.24;80.38;98846.30;223773;1277;139040;-79
2023/03/21 11:09:02;;;;;;;34.00;27.30;;;;;;;11.31;79.98;98848.19;222753;1272;138977;-77
2023/03/21 11:14:08;;;;;;;37.40;30.10;;;;;;;11.21;78.97;98847.95;222243;1262;22552;-77
2023/03/21 11:19:14;;;;;;;40.00;31.00;;;;;;;11.07;79.36;98848.42;222303;1275;23224;-78
2023/03/21 11:24:19;;;;;;;40.80;30.90;;;;;;;10.94;79.41;98845.91;222772;1273;138339;-80
2023/03/21 11:29:38;;;;;;;39.00;31.80;;;;;;;11.01;79.94;98846.51;222440;1269;139010;-78
2023/03/21 11:34:47;;;;;;;39.70;30.50;;;;;;;11.01;79.33;98848.13;222559;1269;139664;-77
2023/03/21 11:40:35;;;;;;;37.80;29.70;;;;;;;10.90;79.14;98839.56;222423;1261;139455;-75
2023/03/21 11:45:57;;;;;;;36.60;30.10;;;;;;;10.84;79.04;98838.23;222699;1268;139043;-75
2023/03/21 11:51:18;;;;;;;40.60;30.40;;;;;;;10.84;79.31;98833.12;222394;1271;139164;-77
2023/03/21 11:56:48;;;;;;;;;;;;;;;10.84;78.94;98831.01;222897;1269;139552;-77
2023/03/21 12:02:15;;;;;;;38.60;30.10;;;;;;;10.78;78.99;98827.73;223038;1260;22527;-77
2023/03/21 12:07:43;;;;;;;37.40;29.50;;;;;;;10.86;79.10;98829.91;222373;1272;23196;-75
2023/03/21 12:13:02;;;;;;;34.40;27.80;;;;;;;10.99;79.34;98822.08;222118;1270;139256;-72
2023/03/21 12:18:59;;;;;;;34.00;27.00;;;;;;;11.10;78.94;98820.39;222307;1265;139438;-74
2023/03/21 12:24:17;;;;;;;52.40;34.50;;;;;;;11.17;78.65;98819.17;222115;1272;138827;-74
2023/03/21 12:29:26;;;;;;;41.10;26.70;;;;;;;11.26;78.75;98805.83;222551;1274;139965;-75
2023/03/21 12:34:35;;;;;;;81.20;31.30;;;;;;;11.29;78.42;98806.02;222364;1272;139022;-74
2023/03/21 12:39:39;;;;;;;172.70;42.90;;;;;;;11.25;78.11;98800.27;222339;1274;139408;-75
2023/03/21 12:44:51;;;;;;;108.90;33.20;;;;;;;11.35;78.77;98799.77;222444;1271;139698;-74
2023/03/21 12:50:12;;;;;;;38.10;26.40;;;;;;;11.52;78.64;98793.21;222005;1277;22763;-74
2023/03/21 12:55:22;;;;;;;44.00;25.70;;;;;;;11.60;78.35;98788.08;222336;1274;22645;-73
2023/03/21 13:00:27;;;;;;;;;;;;;;;11.66;78.15;98785.96;222002;1273;138686;-74
2023/03/21 13:05:54;;;;;;;43.70;24.60;;;;;;;11.77;78.13;98774.52;222135;1257;125088;-73
2023/03/21 13:10:57;;;;;;;28.70;22.20;;;;;;;11.85;77.78;98765.42;222103;1275;139101;-75
2023/03/21 13:16:22;;;;;;;36.50;24.00;;;;;;;11.98;77.90;98770.97;221953;1276;139037;-73
2023/03/21 13:21:52;;;;;;;41.10;25.60;;;;;;;12.09;77.46;98771.10;222503;1273;139004;-74
2023/03/21 13:27:19;;;;;;;29.80;23.70;;;;;;;12.21;77.36;98765.85;222199;1277;140036;-73
2023/03/21 13:32:35;;;;;;;26.70;21.80;;;;;;;12.40;77.13;98761.91;222380;1273;139000;-73
2023/03/21 13:37:50;;;;;;;21.20;18.90;;;;;;;12.63;76.90;98758.38;222994;1278;22826;-72
2023/03/21 13:43:17;;;;;;;20.30;15.40;;;;;;;12.75;76.00;98756.92;222141;1268;139062;-73
2023/03/21 13:48:41;;;;;;;17.60;14.90;;;;;;;12.81;75.05;98759.16;222084;1277;138800;-74
2023/03/21 13:54:16;;;;;;;19.30;17.20;;;;;;;12.78;74.26;98756.88;222063;1268;139106;-79
2023/03/21 13:59:37;;;;;;;20.00;17.60;;;;;;;12.72;74.47;98750.98;222402;1260;139037;-73
2023/03/21 14:04:43;;;;;;;19.70;16.10;;;;;;;12.72;74.69;98741.80;222193;1265;139110;-75
2023/03/21 14:10:34;;;;;;;20.90;17.40;;;;;;;12.64;73.92;98744.05;222089;1276;139415;-74
2023/03/21 14:16:11;;;;;;;20.30;17.50;;;;;;;12.49;73.95;98736.66;222558;1273;139796;-74
2023/03/21 14:21:20;;;;;;;26.10;18.70;;;;;;;12.45;74.16;98735.89;222169;1273;138960;-75
2023/03/21 14:27:00;;;;;;;21.80;18.40;;;;;;;12.50;74.08;98734.94;221997;1274;138915;-71
2023/03/21 14:32:23;;;;;;;19.80;17.10;;;;;;;12.55;74.21;98735.86;222138;1273;139001;-74
2023/03/21 14:37:39;;;;;;;22.90;18.50;;;;;;;12.51;73.86;98733.68;222376;1273;22733;-73
2023/03/21 14:42:47;;;;;;;22.80;19.20;;;;;;;12.34;73.56;98730.75;222417;1272;138778;-73
2023/03/21 14:48:17;;;;;;;23.80;19.30;;;;;;;12.16;73.92;98728.83;222220;1259;139379;-72
2023/03/21 14:53:29;;;;;;;23.80;18.50;;;;;;;11.95;73.84;98730.35;222220;1272;139334;-74
2023/03/21 14:58:45;;;;;;;24.30;19.50;;;;;;;11.80;74.48;98730.58;222190;1266;138927;-74
2023/03/21 15:03:51;;;;;;;19.80;17.60;;;;;;;11.65;74.23;98728.56;222462;1275;22583;-74
2023/03/21 15:09:03;;;;;;;21.40;16.80;;;;;;;11.50;74.27;98730.91;222076;1279;24494;-76
2023/03/21 15:14:29;;;;;;;;;;;;;;;;;;;;;
2023/03/21 15:19:36;;;;;;;29.30;22.60;;;;;;;11.26;75.67;98725.44;222412;1279;23041;-74
2023/03/21 15:24:54;;;;;;;26.60;20.30;;;;;;;11.19;75.73;98723.84;222510;1278;25307;-75
2023/03/21 15:29:57;;;;;;;29.90;23.30;;;;;;;11.09;75.99;98715.30;222419;1268;23001;-75
2023/03/21 15:35:07;;;;;;;42.10;31.20;;;;;;;11.01;76.72;98713.13;222190;1279;23177;-75
2023/03/21 15:40:35;;;;;;;36.90;27.00;;;;;;;10.99;76.98;98712.21;222512;1264;22527;-74
2023/03/21 15:45:52;;;;;;;34.20;24.60;;;;;;;10.93;77.12;98712.15;222337;1277;22543;-74
2023/03/21 15:51:04;;;;;;;33.10;26.10;;;;;;;10.84;77.06;98702.64;222355;1275;22635;-75
2023/03/21 15:56:15;;;;;;;31.40;25.30;;;;;;;10.79;77.37;98700.23;222345;1279;22671;-75
2023/03/21 16:01:25;;;;;;;33.50;27.10;;;;;;;10.69;77.42;98696.70;222221;1279;22641;-74
2023/03/21 16:06:34;;;;;;;36.80;29.20;;;;;;;10.58;77.79;98695.62;222297;1279;25280;-74
2023/03/21 16:11:48;;;;;;;38.80;29.40;;;;;;;10.48;78.16;98695.27;222919;1268;26508;-74
2023/03/21 16:16:50;;;;;;;42.00;31.70;;;;;;;10.39;77.88;98687.08;222617;1278;24261;-74
2023/03/21 16:21:53;;;;;;;46.80;34.70;;;;;;;10.34;78.24;98692.48;222254;1280;25455;-74
2023/03/21 16:26:58;;;;;;;58.70;39.60;;;;;;;10.33;78.69;98690.97;222400;1278;22542;-74
2023/03/21 16:32:04;;;;;;;51.50;38.00;;;;;;;10.33;78.77;98698.86;222302;1279;22540;-74
2023/03/21 16:37:11;;;;;;;56.10;38.70;;;;;;;10.30;78.99;98708.98;222622;1278;22530;-73
2023/03/21 16:42:13;;;;;;;50.20;35.30;;;;;;;10.25;79.43;98713.60;222862;1275;22571;-74
2023/03/21 16:47:22;;;;;;;59.70;39.20;;;;;;;10.14;79.26;98714.75;222361;1277;24340;-75
2023/03/21 16:52:49;;;;;;;59.30;41.00;;;;;;;10.03;79.28;98716.75;222392;1271;22536;-75
2023/03/21 16:57:52;;;;;;;62.30;39.70;;;;;;;9.96;79.30;98719.58;222486;1271;23362;-74
2023/03/21 17:03:01;;;;;;;62.80;40.10;;;;;;;9.85;79.77;98726.23;222310;1279;23661;-72
2023/03/21 17:08:05;;;;;;;52.90;37.10;;;;;;;9.73;79.59;98729.91;222385;1279;22557;-75
2023/03/21 17:13:07;;;;;;;58.40;39.40;;;;;;;9.65;79.97;98729.15;222120;1280;22649;-74
2023/03/21 17:18:20;;;;;;;63.20;42.30;;;;;;;9.59;80.28;98731.50;222395;1280;25371;-74
2023/03/21 17:23:22;;;;;;;64.00;42.70;;;;;;;9.54;80.17;98733.75;222398;1271;22713;-73
2023/03/21 17:28:27;;;;;;;88.70;50.10;;;;;;;9.52;80.57;98741.52;222304;1278;22615;-74
2023/03/21 17:33:32;;;;;;;67.90;42.70;;;;;;;9.52;80.47;98744.91;222389;1269;22540;-74
2023/03/21 17:38:50;;;;;;;;;;;;;;;;;;;;;
2023/03/21 17:44:01;;;;;;;70.50;44.60;;;;;;;9.43;80.81;98744.43;222531;1278;22533;-74
2023/03/21 17:49:05;;;;;;;71.60;46.40;;;;;;;9.41;80.61;98745.56;222342;1279;22545;-75
2023/03/21 17:54:08;;;;;;;61.20;40.30;;;;;;;9.39;80.91;98743.77;222367;1269;22551;-75
2023/03/21 17:59:13;;;;;;;62.80;40.20;;;;;;;9.35;80.84;98742.21;222237;1279;25237;-72
2023/03/21 18:04:20;;;;;;;48.40;33.70;;;;;;;9.31;80.79;98740.81;222399;1265;24238;-74
2023/03/21 18:09:56;;;;;;;54.60;37.10;;;;;;;9.24;80.76;98741.80;222349;1265;22760;-74
2023/03/21 18:15:03;;;;;;;57.50;38.30;;;;;;;9.18;81.26;98742.85;222368;1262;23228;-75
2023/03/21 18:20:09;;;;;;;51.50;35.60;;;;;;;9.12;80.98;98747.87;222319;1279;22537;-74
2023/03/21 18:25:19;;;;;;;67.10;45.30;;;;;;;9.07;81.54;98745.50;222227;1278;22621;-74
2023/03/21 18:30:24;;;;;;;71.00;44.50;;;;;;;9.05;81.52;98745.77;222254;1279;22524;-75
2023/03/21 18:36:10;;;;;;;64.70;42.60;;;;;;;9.04;82.00;98747.27;222460;1279;22774;-75
2023/03/21 18:41:18;;;;;;;64.20;43.50;;;;;;;9.01;81.73;98749.56;222467;1279;22530;-74
2023/03/21 18:46:29;;;;;;;64.40;43.10;;;;;;;8.96;81.89;98750.13;222292;1265;22542;-74
2023/03/21 18:51:31;;;;;;;66.50;45.10;;;;;;;8.91;82.16;98755.67;222423;1269;24286;-73
2023/03/21 18:56:36;;;;;;;68.70;45.10;;;;;;;8.88;82.22;98753.70;222138;1279;22548;-75
2023/03/21 19:02:01;;;;;;;72.30;45.20;;;;;;;8.87;82.28;98752.48;222383;1278;24209;-74
2023/03/21 19:07:06;;;;;;;72.10;46.90;;;;;;;8.82;82.66;98754.36;222514;1278;22527;-74
2023/03/21 19:12:09;;;;;;;81.90;50.50;;;;;;;8.76;82.89;98765.20;222796;1280;22571;-74
2023/03/21 19:17:14;;;;;;;79.80;51.00;;;;;;;8.76;82.85;98770.66;222001;1280;22700;-74
2023/03/21 19:22:43;;;;;;;82.50;53.10;;;;;;;8.75;82.84;98772.08;222375;1280;23651;-73
2023/03/21 19:27:59;;;;;;;88.60;54.90;;;;;;;8.72;82.74;98773.13;222215;1279;25293;-75
2023/03/21 19:33:04;;;;;;;84.20;52.80;;;;;;;8.69;83.19;98773.30;222348;1275;22590;-74
2023/03/21 19:38:06;;;;;;;76.00;50.50;;;;;;;8.65;82.92;98772.51;222311;1279;25257;-74
2023/03/21 19:43:15;;;;;;;87.80;56.10;;;;;;;8.60;82.74;98765.54;222319;1280;22847;-74
2023/03/21 19:48:41;;;;;;;105.40;65.80;;;;;;;8.59;83.30;98757.00;222379;1279;24281;-74
2023/03/21 19:53:49;;;;;;;120.30;70.10;;;;;;;8.60;83.53;98755.56;222579;1275;26573;-75
2023/03/21 19:58:51;;;;;;;119.10;65.20;;;;;;;8.63;83.63;98757.30;222407;1278;22649;-75
2023/03/21 20:03:57;;;;;;;128.70;70.30;;;;;;;8.66;83.66;98758.93;222217;1276;24410;-74
2023/03/21 20:09:00;;;;;;;118.30;65.80;;;;;;;8.68;83.99;98759.42;222446;1279;23181;-75
2023/03/21 20:14:23;;;;;;;120.00;66.50;;;;;;;8.69;83.80;98761.05;222317;1266;22550;-74
2023/03/21 20:19:26;;;;;;;119.90;66.50;;;;;;;8.69;84.28;98762.64;222250;1278;22644;-75
2023/03/21 20:24:30;;;;;;;124.80;68.90;;;;;;;8.66;83.97;98760.64;222099;1280;23142;-74
2023/03/21 20:29:53;;;;;;;135.00;69.40;;;;;;;8.64;84.06;98759.31;222348;1265;25131;-74
2023/03/21 20:35:27;;;;;;;;;;;;;;;;;;;;;
2023/03/21 20:40:54;;;;;;;135.70;72.80;;;;;;;8.62;84.05;98755.98;222199;1280;24561;-74
2023/03/21 20:46:11;;;;;;;138.00;74.90;;;;;;;8.62;84.29;98751.61;222310;1266;22531;-75
2023/03/21 20:51:17;;;;;;;146.00;81.00;;;;;;;8.63;84.15;98750.95;222390;1279;22562;-74
2023/03/21 20:56:41;;;;;;;175.90;100.00;;;;;;;8.64;84.46;98746.95;222401;1274;22685;-74
2023/03/21 21:01:44;;;;;;;193.50;112.00;;;;;;;8.65;84.03;98746.73;222456;1278;25224;-75
2023/03/21 21:06:49;;;;;;;207.90;121.50;;;;;;;8.64;84.20;98742.65;222254;1279;24395;-73
2023/03/21 21:11:52;;;;;;;216.20;122.20;;;;;;;8.62;84.02;98734.91;222356;1279;22569;-74
2023/03/21 21:17:17;;;;;;;215.50;120.40;;;;;;;8.58;84.05;98734.02;222506;1264;22524;-74
2023/03/21 21:22:51;;;;;;;259.50;138.80;;;;;;;8.55;83.89;98732.33;222189;1279;24301;-74
2023/03/21 21:28:07;;;;;;;232.40;126.70;;;;;;;8.53;83.88;98733.92;222540;1277;23342;-73
2023/03/21 21:33:10;;;;;;;201.40;118.30;;;;;;;8.54;84.53;98729.93;222556;1261;22610;-75
2023/03/21 21:38:22;;;;;;;179.90;102.00;;;;;;;8.54;83.81;98720.79;222577;1264;24328;-73
2023/03/21 21:43:26;;;;;;;173.60;101.00;;;;;;;8.52;83.77;98715.83;222437;1273;25272;-75
2023/03/21 21:48:32;;;;;;;149.60;87.50;;;;;;;8.46;84.14;98715.57;222444;1278;22541;-77
2023/03/21 21:53:35;;;;;;;121.10;70.50;;;;;;;8.43;83.95;98703.76;222270;1279;24413;-73
2023/03/21 21:58:44;;;;;;;123.60;71.00;;;;;;;8.42;84.16;98699.39;222466;1270;22534;-74
2023/03/21 22:03:47;;;;;;;128.40;73.50;;;;;;;8.41;83.95;98694.59;222222;1280;23249;-75
2023/03/21 22:08:50;;;;;;;127.20;73.00;;;;;;;8.39;84.24;98692.36;222118;1280;24304;-75
2023/03/21 22:14:00;;;;;;;129.80;71.80;;;;;;;8.36;84.45;98705.97;222305;1280;22620;-74
2023/03/21 22:19:03;;;;;;;117.20;64.80;;;;;;;8.35;84.41;98715.48;222109;1280;158039;-73
2023/03/21 22:24:08;;;;;;;120.50;66.50;;;;;;;8.29;83.84;98711.70;222130;1280;22582;-74
2023/03/21 22:29:13;;;;;;;114.70;65.70;;;;;;;8.26;84.25;98713.52;222225;1269;25258;-74
2023/03/21 22:34:15;;;;;;;140.00;76.40;;;;;;;8.23;84.20;98714.32;222477;1276;22486;-74
2023/03/21 22:39:25;;;;;;;141.70;76.10;;;;;;;8.24;84.39;98716.75;222413;1279;22859;-74
2023/03/21 22:44:37;;;;;;;147.80;80.20;;;;;;;8.21;84.31;98708.27;222338;1279;22565;-73
2023/03/21 22:49:45;;;;;;;151.00;82.60;;;;;;;8.16;84.53;98705.67;222171;1279;22943;-73
2023/03/21 22:54:54;;;;;;;174.60;96.60;;;;;;;8.02;84.39;98712.05;222713;1276;22721;-74
2023/03/21 23:00:00;;;;;;;174.20;95.60;;;;;;;7.93;84.91;98704.11;222285;1267;22556;-75
2023/03/21 23:05:07;;;;;;;176.00;96.90;;;;;;;7.86;84.66;98698.03;222128;1279;24202;-73
2023/03/21 23:10:12;;;;;;;185.40;97.20;;;;;;;7.78;85.10;98692.12;222305;1279;22570;-73
2023/03/21 23:15:24;;;;;;;190.40;96.40;;;;;;;7.69;85.12;98692.77;222503;1279;24270;-73
2023/03/21 23:20:26;;;;;;;194.20;94.40;;;;;;;7.60;84.88;98693.91;222428;1276;22706;-74
2023/03/21 23:25:55;;;;;;;206.70;106.50;;;;;;;7.50;85.08;98700.01;222484;1279;22589;-75
2023/03/21 23:30:57;;;;;;;206.40;110.90;;;;;;;7.40;84.77;98702.70;222304;1270;22557;-74
2023/03/21 23:36:02;;;;;;;193.50;102.90;;;;;;;7.27;84.75;98703.97;222276;1279;22589;-73
2023/03/21 23:41:17;;;;;;;201.60;100.60;;;;;;;7.16;85.07;98706.22;222223;1269;22580;-74
2023/03/21 23:46:22;;;;;;;182.30;93.70;;;;;;;7.11;85.50;98707.98;222425;1279;25248;-74
2023/03/21 23:51:27;;;;;;;205.90;102.00;;;;;;;7.05;85.30;98705.98;222162;1272;25367;-74
2023/03/21 23:56:33;;;;;;;200.90;103.30;;;;;;;7.05;85.45;98695.02;222097;1277;26122;-72
